sensor_id;sensor_type;location;lat;lon;timestamp;pressure;altitude;pressure_sealevel;temperature;humidity
50854;BME280;44154;45.506;-122.806;2023-04-03T00:00:32;100482.13;;;25.60;31.35
50854;BME280;44154;45.506;-122.806;2023-04-03T00:02:58;100478.84;;;25.58;31.32
50854;BME280;44154;45.506;-122.806;2023-04-03T00:05:25;100472.78;;;25.51;31.47
50854;BME280;44154;45.506;-122.806;2023-04-03T00:07:51;100471.69;;;25.52;31.49
50854;BME280;44154;45.506;-122.806;2023-04-03T00:10:17;100473.34;;;25.53;31.56
50854;BME280;44154;45.506;-122.806;2023-04-03T00:12:43;100481.00;;;25.46;31.76
50854;BME280;44154;45.506;-122.806;2023-04-03T00:15:10;100478.50;;;25.44;31.81
50854;BME280;44154;45.506;-122.806;2023-04-03T00:17:37;100479.91;;;25.47;31.50
50854;BME280;44154;45.506;-122.806;2023-04-03T00:20:04;100479.31;;;25.40;31.83
50854;BME280;44154;45.506;-122.806;2023-04-03T00:22:31;100486.97;;;25.33;31.99
50854;BME280;44154;45.506;-122.806;2023-04-03T00:24:57;100492.72;;;25.31;31.76
50854;BME280;44154;45.506;-122.806;2023-04-03T00:27:23;100491.84;;;25.31;31.52
50854;BME280;44154;45.506;-122.806;2023-04-03T00:29:49;100493.78;;;25.30;31.69
50854;BME280;44154;45.506;-122.806;2023-04-03T00:32:15;100504.72;;;25.30;31.76
50854;BME280;44154;45.506;-122.806;2023-04-03T00:34:42;100504.75;;;25.35;31.78
50854;BME280;44154;45.506;-122.806;2023-04-03T00:37:08;100506.22;;;25.53;31.77
50854;BME280;44154;45.506;-122.806;2023-04-03T00:39:34;100502.72;;;25.73;31.59
50854;BME280;44154;45.506;-122.806;2023-04-03T00:42:00;100497.53;;;25.82;31.37
50854;BME280;44154;45.506;-122.806;2023-04-03T00:46:59;100510.13;;;25.78;31.35
50854;BME280;44154;45.506;-122.806;2023-04-03T00:49:26;100501.91;;;25.73;31.32
50854;BME280;44154;45.506;-122.806;2023-04-03T00:51:53;100509.81;;;25.69;31.33
50854;BME280;44154;45.506;-122.806;2023-04-03T00:54:21;100502.66;;;25.58;30.72
50854;BME280;44154;45.506;-122.806;2023-04-03T00:56:48;100505.41;;;25.58;30.57
50854;BME280;44154;45.506;-122.806;2023-04-03T00:59:33;100507.03;;;25.54;31.09
50854;BME280;44154;45.506;-122.806;2023-04-03T01:02:00;100497.69;;;25.50;31.29
50854;BME280;44154;45.506;-122.806;2023-04-03T01:04:32;100503.19;;;25.50;31.22
50854;BME280;44154;45.506;-122.806;2023-04-03T01:07:05;100506.72;;;25.45;31.22
50854;BME280;44154;45.506;-122.806;2023-04-03T01:09:33;100507.53;;;25.40;31.33
50854;BME280;44154;45.506;-122.806;2023-04-03T01:12:25;100507.78;;;25.34;31.19
50854;BME280;44154;45.506;-122.806;2023-04-03T01:14:54;100499.53;;;25.28;31.35
50854;BME280;44154;45.506;-122.806;2023-04-03T01:25:23;100501.38;;;25.76;30.97
50854;BME280;44154;45.506;-122.806;2023-04-03T01:27:49;100509.31;;;25.77;31.01
50854;BME280;44154;45.506;-122.806;2023-04-03T01:30:19;100508.47;;;25.77;31.03
50854;BME280;44154;45.506;-122.806;2023-04-03T01:32:46;100494.47;;;25.63;31.11
50854;BME280;44154;45.506;-122.806;2023-04-03T01:35:12;100508.44;;;25.67;31.29
50854;BME280;44154;45.506;-122.806;2023-04-03T01:37:39;100507.59;;;25.61;31.00
50854;BME280;44154;45.506;-122.806;2023-04-03T01:40:05;100504.59;;;25.57;31.44
50854;BME280;44154;45.506;-122.806;2023-04-03T01:42:32;100502.94;;;25.51;31.50
50854;BME280;44154;45.506;-122.806;2023-04-03T01:44:58;100505.38;;;25.48;31.48
50854;BME280;44154;45.506;-122.806;2023-04-03T01:47:24;100503.44;;;25.48;31.40
50854;BME280;44154;45.506;-122.806;2023-04-03T01:49:51;100496.84;;;25.39;31.21
50854;BME280;44154;45.506;-122.806;2023-04-03T01:52:17;100484.75;;;25.30;31.17
50854;BME280;44154;45.506;-122.806;2023-04-03T01:54:43;100511.91;;;25.36;31.25
50854;BME280;44154;45.506;-122.806;2023-04-03T01:57:09;100514.38;;;25.33;31.29
50854;BME280;44154;45.506;-122.806;2023-04-03T01:59:35;100512.16;;;25.35;31.48
50854;BME280;44154;45.506;-122.806;2023-04-03T02:02:02;100518.19;;;25.32;31.44
50854;BME280;44154;45.506;-122.806;2023-04-03T02:04:28;100523.91;;;25.30;31.43
50854;BME280;44154;45.506;-122.806;2023-04-03T02:06:54;100523.09;;;25.30;31.27
50854;BME280;44154;45.506;-122.806;2023-04-03T02:09:20;100524.47;;;25.32;31.41
50854;BME280;44154;45.506;-122.806;2023-04-03T02:11:46;100522.59;;;25.38;31.84
50854;BME280;44154;45.506;-122.806;2023-04-03T02:14:13;100515.53;;;25.52;32.10
50854;BME280;44154;45.506;-122.806;2023-04-03T02:16:39;100521.34;;;25.71;31.42
50854;BME280;44154;45.506;-122.806;2023-04-03T02:19:05;100522.19;;;25.77;30.98
50854;BME280;44154;45.506;-122.806;2023-04-03T02:21:31;100518.59;;;25.66;30.75
50854;BME280;44154;45.506;-122.806;2023-04-03T02:23:57;100534.75;;;25.62;31.01
50854;BME280;44154;45.506;-122.806;2023-04-03T02:26:23;100537.19;;;25.54;31.24
50854;BME280;44154;45.506;-122.806;2023-04-03T02:28:50;100558.56;;;25.57;32.21
50854;BME280;44154;45.506;-122.806;2023-04-03T02:31:16;100569.50;;;25.52;33.25
50854;BME280;44154;45.506;-122.806;2023-04-03T02:33:43;100569.22;;;25.48;33.06
50854;BME280;44154;45.506;-122.806;2023-04-03T02:36:09;100564.34;;;25.60;33.19
50854;BME280;44154;45.506;-122.806;2023-04-03T02:38:35;100559.50;;;25.88;32.88
50854;BME280;44154;45.506;-122.806;2023-04-03T02:41:06;100551.09;;;26.16;32.27
50854;BME280;44154;45.506;-122.806;2023-04-03T02:43:34;100555.53;;;26.32;32.44
50854;BME280;44154;45.506;-122.806;2023-04-03T02:46:00;100544.28;;;26.34;31.64
50854;BME280;44154;45.506;-122.806;2023-04-03T02:48:27;100562.91;;;26.42;31.02
50854;BME280;44154;45.506;-122.806;2023-04-03T02:50:54;100570.03;;;26.22;31.92
50854;BME280;44154;45.506;-122.806;2023-04-03T02:53:20;100570.56;;;26.09;31.60
50854;BME280;44154;45.506;-122.806;2023-04-03T02:55:46;100567.25;;;26.02;31.49
50854;BME280;44154;45.506;-122.806;2023-04-03T02:58:12;100575.69;;;25.90;31.51
50854;BME280;44154;45.506;-122.806;2023-04-03T03:00:38;100567.69;;;25.73;31.33
50854;BME280;44154;45.506;-122.806;2023-04-03T03:03:05;100580.00;;;25.75;31.45
50854;BME280;44154;45.506;-122.806;2023-04-03T03:05:31;100587.13;;;25.71;31.63
50854;BME280;44154;45.506;-122.806;2023-04-03T03:07:58;100586.53;;;25.64;31.39
50854;BME280;44154;45.506;-122.806;2023-04-03T03:10:24;100593.94;;;25.58;31.31
50854;BME280;44154;45.506;-122.806;2023-04-03T03:12:50;100598.31;;;25.54;31.41
50854;BME280;44154;45.506;-122.806;2023-04-03T03:15:16;100593.59;;;25.50;31.71
50854;BME280;44154;45.506;-122.806;2023-04-03T03:17:45;100590.59;;;25.46;31.57
50854;BME280;44154;45.506;-122.806;2023-04-03T03:20:12;100596.06;;;25.46;31.41
50854;BME280;44154;45.506;-122.806;2023-04-03T03:22:40;100598.41;;;25.27;31.61
50854;BME280;44154;45.506;-122.806;2023-04-03T03:25:07;100602.38;;;25.09;31.99
50854;BME280;44154;45.506;-122.806;2023-04-03T03:27:33;100588.22;;;24.85;31.77
50854;BME280;44154;45.506;-122.806;2023-04-03T03:29:59;100599.19;;;24.85;31.99
50854;BME280;44154;45.506;-122.806;2023-04-03T03:32:25;100549.47;;;24.61;31.76
50854;BME280;44154;45.506;-122.806;2023-04-03T03:34:51;100614.44;;;25.08;31.94
50854;BME280;44154;45.506;-122.806;2023-04-03T03:37:17;100577.28;;;24.85;31.81
50854;BME280;44154;45.506;-122.806;2023-04-03T03:39:43;100626.81;;;25.16;31.68
50854;BME280;44154;45.506;-122.806;2023-04-03T03:42:10;100627.63;;;25.16;31.65
50854;BME280;44154;45.506;-122.806;2023-04-03T03:44:36;100618.78;;;25.04;31.42
50854;BME280;44154;45.506;-122.806;2023-04-03T03:47:02;100628.69;;;25.10;31.42
50854;BME280;44154;45.506;-122.806;2023-04-03T03:49:29;100644.09;;;25.21;31.60
50854;BME280;44154;45.506;-122.806;2023-04-03T03:51:55;100635.91;;;25.26;31.63
50854;BME280;44154;45.506;-122.806;2023-04-03T03:54:21;100619.66;;;25.15;31.60
50854;BME280;44154;45.506;-122.806;2023-04-03T03:56:47;100636.75;;;25.27;31.51
50854;BME280;44154;45.506;-122.806;2023-04-03T03:59:13;100626.53;;;25.17;31.51
50854;BME280;44154;45.506;-122.806;2023-04-03T04:01:40;100624.59;;;25.13;31.38
50854;BME280;44154;45.506;-122.806;2023-04-03T04:04:06;100641.31;;;25.16;31.48
50854;BME280;44154;45.506;-122.806;2023-04-03T04:06:32;100643.22;;;25.16;31.34
50854;BME280;44154;45.506;-122.806;2023-04-03T04:08:58;100642.38;;;25.10;31.58
50854;BME280;44154;45.506;-122.806;2023-04-03T04:11:24;100648.13;;;25.14;31.16
50854;BME280;44154;45.506;-122.806;2023-04-03T04:13:50;100638.75;;;25.04;31.57
50854;BME280;44154;45.506;-122.806;2023-04-03T04:16:16;100646.72;;;25.06;31.27
50854;BME280;44154;45.506;-122.806;2023-04-03T04:18:42;100634.59;;;24.97;31.50
50854;BME280;44154;45.506;-122.806;2023-04-03T04:21:08;100649.44;;;25.06;31.67
50854;BME280;44154;45.506;-122.806;2023-04-03T04:23:35;100660.41;;;25.06;31.60
50854;BME280;44154;45.506;-122.806;2023-04-03T04:26:01;100662.06;;;25.07;31.20
50854;BME280;44154;45.506;-122.806;2023-04-03T04:28:27;100654.94;;;25.06;31.54
50854;BME280;44154;45.506;-122.806;2023-04-03T04:30:53;100670.88;;;25.14;32.13
50854;BME280;44154;45.506;-122.806;2023-04-03T04:33:19;100670.41;;;25.22;31.51
50854;BME280;44154;45.506;-122.806;2023-04-03T04:35:47;100673.31;;;25.43;31.42
50854;BME280;44154;45.506;-122.806;2023-04-03T04:38:14;100677.44;;;25.45;31.27
50854;BME280;44154;45.506;-122.806;2023-04-03T04:40:40;100674.97;;;25.44;31.19
50854;BME280;44154;45.506;-122.806;2023-04-03T04:43:07;100668.91;;;25.37;30.97
50854;BME280;44154;45.506;-122.806;2023-04-03T04:45:33;100678.72;;;25.33;31.24
50854;BME280;44154;45.506;-122.806;2023-04-03T04:47:59;100671.25;;;25.28;31.16
50854;BME280;44154;45.506;-122.806;2023-04-03T04:50:25;100678.09;;;25.25;31.05
50854;BME280;44154;45.506;-122.806;2023-04-03T04:52:51;100680.00;;;25.25;31.29
50854;BME280;44154;45.506;-122.806;2023-04-03T04:55:17;100679.13;;;25.19;31.06
50854;BME280;44154;45.506;-122.806;2023-04-03T04:57:43;100684.00;;;25.12;31.18
50854;BME280;44154;45.506;-122.806;2023-04-03T05:00:10;100685.06;;;25.06;31.16
50854;BME280;44154;45.506;-122.806;2023-04-03T05:02:36;100694.88;;;25.02;31.29
50854;BME280;44154;45.506;-122.806;2023-04-03T05:05:03;100693.72;;;24.98;31.24
50854;BME280;44154;45.506;-122.806;2023-04-03T05:07:29;100696.72;;;24.96;31.16
50854;BME280;44154;45.506;-122.806;2023-04-03T05:09:55;100693.97;;;24.91;31.19
50854;BME280;44154;45.506;-122.806;2023-04-03T05:12:21;100696.97;;;24.89;31.28
50854;BME280;44154;45.506;-122.806;2023-04-03T05:14:48;100700.31;;;24.97;31.79
50854;BME280;44154;45.506;-122.806;2023-04-03T05:17:14;100703.31;;;24.95;31.86
50854;BME280;44154;45.506;-122.806;2023-04-03T05:19:40;100702.41;;;25.17;31.09
50854;BME280;44154;45.506;-122.806;2023-04-03T05:22:06;100704.69;;;25.30;30.95
50854;BME280;44154;45.506;-122.806;2023-04-03T05:24:32;100705.50;;;25.31;31.04
50854;BME280;44154;45.506;-122.806;2023-04-03T05:26:58;100709.13;;;25.31;30.99
50854;BME280;44154;45.506;-122.806;2023-04-03T05:29:25;100707.66;;;25.23;30.99
50854;BME280;44154;45.506;-122.806;2023-04-03T05:31:51;100700.22;;;25.19;31.01
50854;BME280;44154;45.506;-122.806;2023-04-03T05:34:17;100700.44;;;25.12;30.94
50854;BME280;44154;45.506;-122.806;2023-04-03T05:36:43;100702.63;;;25.10;30.96
50854;BME280;44154;45.506;-122.806;2023-04-03T05:39:10;100714.91;;;25.07;31.05
50854;BME280;44154;45.506;-122.806;2023-04-03T05:41:36;100701.69;;;24.99;31.07
50854;BME280;44154;45.506;-122.806;2023-04-03T05:44:02;100698.59;;;24.90;30.86
50854;BME280;44154;45.506;-122.806;2023-04-03T05:46:28;100702.44;;;24.89;30.71
50854;BME280;44154;45.506;-122.806;2023-04-03T05:48:55;100702.63;;;24.83;31.17
50854;BME280;44154;45.506;-122.806;2023-04-03T05:51:28;100702.03;;;24.75;31.68
50854;BME280;44154;45.506;-122.806;2023-04-03T05:54:03;100705.28;;;24.72;31.79
50854;BME280;44154;45.506;-122.806;2023-04-03T05:56:32;100700.88;;;24.99;31.30
50854;BME280;44154;45.506;-122.806;2023-04-03T05:58:58;100700.78;;;25.21;30.90
50854;BME280;44154;45.506;-122.806;2023-04-03T06:01:24;100702.22;;;25.28;30.37
50854;BME280;44154;45.506;-122.806;2023-04-03T06:03:50;100708.75;;;25.22;30.50
50854;BME280;44154;45.506;-122.806;2023-04-03T06:06:16;100708.97;;;25.16;30.56
50854;BME280;44154;45.506;-122.806;2023-04-03T06:08:42;100716.03;;;25.11;31.00
50854;BME280;44154;45.506;-122.806;2023-04-03T06:11:09;100711.81;;;24.99;30.94
50854;BME280;44154;45.506;-122.806;2023-04-03T06:13:35;100717.81;;;24.96;31.16
50854;BME280;44154;45.506;-122.806;2023-04-03T06:16:02;100727.16;;;25.00;30.96
50854;BME280;44154;45.506;-122.806;2023-04-03T06:18:29;100720.03;;;24.99;30.77
50854;BME280;44154;45.506;-122.806;2023-04-03T06:20:56;100730.19;;;25.03;30.71
50854;BME280;44154;45.506;-122.806;2023-04-03T06:23:22;100728.03;;;25.05;30.77
50854;BME280;44154;45.506;-122.806;2023-04-03T06:25:48;100699.44;;;24.91;30.74
50854;BME280;44154;45.506;-122.806;2023-04-03T06:28:14;100712.38;;;25.01;30.92
50854;BME280;44154;45.506;-122.806;2023-04-03T06:30:40;100725.59;;;25.09;30.75
50854;BME280;44154;45.506;-122.806;2023-04-03T06:33:06;100731.34;;;25.07;30.71
50854;BME280;44154;45.506;-122.806;2023-04-03T06:35:33;100718.44;;;25.03;30.59
50854;BME280;44154;45.506;-122.806;2023-04-03T06:38:00;100714.28;;;24.95;30.75
50854;BME280;44154;45.506;-122.806;2023-04-03T06:40:27;100729.94;;;25.05;30.60
50854;BME280;44154;45.506;-122.806;2023-04-03T06:42:53;100723.91;;;25.03;30.51
50854;BME280;44154;45.506;-122.806;2023-04-03T06:45:20;100729.13;;;25.04;30.79
50854;BME280;44154;45.506;-122.806;2023-04-03T06:47:47;100729.91;;;25.00;30.75
50854;BME280;44154;45.506;-122.806;2023-04-03T06:50:13;100739.19;;;24.99;31.04
50854;BME280;44154;45.506;-122.806;2023-04-03T06:52:40;100732.06;;;24.98;30.78
50854;BME280;44154;45.506;-122.806;2023-04-03T06:55:07;100737.81;;;24.96;31.01
50854;BME280;44154;45.506;-122.806;2023-04-03T06:57:34;100741.88;;;24.93;30.75
50854;BME280;44154;45.506;-122.806;2023-04-03T07:00:00;100736.41;;;24.93;30.67
50854;BME280;44154;45.506;-122.806;2023-04-03T07:02:26;100734.44;;;24.89;30.83
50854;BME280;44154;45.506;-122.806;2023-04-03T07:04:52;100735.28;;;24.89;30.69
50854;BME280;44154;45.506;-122.806;2023-04-03T07:07:18;100736.31;;;24.83;30.84
50854;BME280;44154;45.506;-122.806;2023-04-03T07:09:44;100743.75;;;24.88;31.46
50854;BME280;44154;45.506;-122.806;2023-04-03T07:12:12;100742.47;;;24.96;32.50
50854;BME280;44154;45.506;-122.806;2023-04-03T07:14:38;100745.34;;;25.11;32.07
50854;BME280;44154;45.506;-122.806;2023-04-03T07:17:04;100741.66;;;25.27;31.59
50854;BME280;44154;45.506;-122.806;2023-04-03T07:19:31;100747.47;;;25.31;31.39
50854;BME280;44154;45.506;-122.806;2023-04-03T07:21:57;100750.44;;;25.30;31.15
50854;BME280;44154;45.506;-122.806;2023-04-03T07:24:23;100743.56;;;25.27;30.82
50854;BME280;44154;45.506;-122.806;2023-04-03T07:26:51;100744.34;;;25.22;30.98
50854;BME280;44154;45.506;-122.806;2023-04-03T07:29:17;100737.75;;;25.18;30.93
50854;BME280;44154;45.506;-122.806;2023-04-03T07:31:43;100751.69;;;25.17;30.86
50854;BME280;44154;45.506;-122.806;2023-04-03T07:34:10;100736.25;;;25.05;30.89
50854;BME280;44154;45.506;-122.806;2023-04-03T07:36:37;100760.66;;;25.07;30.89
50854;BME280;44154;45.506;-122.806;2023-04-03T07:39:03;100751.28;;;25.03;30.71
50854;BME280;44154;45.506;-122.806;2023-04-03T07:41:29;100752.81;;;24.93;30.63
50854;BME280;44154;45.506;-122.806;2023-04-03T07:43:56;100757.22;;;24.94;30.72
50854;BME280;44154;45.506;-122.806;2023-04-03T07:46:23;100755.81;;;24.92;30.80
50854;BME280;44154;45.506;-122.806;2023-04-03T07:48:49;100761.53;;;24.85;30.72
50854;BME280;44154;45.506;-122.806;2023-04-03T07:51:15;100765.59;;;24.83;30.95
50854;BME280;44154;45.506;-122.806;2023-04-03T07:53:42;100747.66;;;24.70;30.94
50854;BME280;44154;45.506;-122.806;2023-04-03T07:56:08;100769.38;;;24.76;30.81
50854;BME280;44154;45.506;-122.806;2023-04-03T07:58:35;100766.91;;;24.75;30.91
50854;BME280;44154;45.506;-122.806;2023-04-03T08:01:02;100769.03;;;24.73;31.65
50854;BME280;44154;45.506;-122.806;2023-04-03T08:03:29;100780.94;;;24.84;32.03
50854;BME280;44154;45.506;-122.806;2023-04-03T08:06:02;100773.19;;;25.03;31.92
50854;BME280;44154;45.506;-122.806;2023-04-03T08:08:29;100768.00;;;25.06;32.02
50854;BME280;44154;45.506;-122.806;2023-04-03T08:10:59;100782.66;;;25.17;31.21
50854;BME280;44154;45.506;-122.806;2023-04-03T08:13:26;100780.63;;;25.07;31.11
50854;BME280;44154;45.506;-122.806;2023-04-03T08:15:52;100789.31;;;24.99;30.98
50854;BME280;44154;45.506;-122.806;2023-04-03T08:18:18;100777.88;;;24.80;31.24
50854;BME280;44154;45.506;-122.806;2023-04-03T08:20:47;100791.28;;;24.76;31.36
50854;BME280;44154;45.506;-122.806;2023-04-03T08:23:13;100790.63;;;24.69;31.35
50854;BME280;44154;45.506;-122.806;2023-04-03T08:25:41;100780.88;;;24.56;31.34
50854;BME280;44154;45.506;-122.806;2023-04-03T08:28:08;100796.19;;;24.57;31.20
50854;BME280;44154;45.506;-122.806;2023-04-03T08:30:35;100793.47;;;24.57;31.91
50854;BME280;44154;45.506;-122.806;2023-04-03T08:33:02;100801.34;;;24.71;31.71
50854;BME280;44154;45.506;-122.806;2023-04-03T08:35:28;100797.47;;;24.94;31.19
50854;BME280;44154;45.506;-122.806;2023-04-03T08:37:55;100791.06;;;25.10;30.86
50854;BME280;44154;45.506;-122.806;2023-04-03T08:40:22;100797.06;;;25.07;30.52
50854;BME280;44154;45.506;-122.806;2023-04-03T08:45:45;100796.59;;;24.88;32.90
50854;BME280;44154;45.506;-122.806;2023-04-03T08:48:50;100794.63;;;24.84;33.40
50854;BME280;44154;45.506;-122.806;2023-04-03T08:51:19;100798.63;;;24.76;34.34
50854;BME280;44154;45.506;-122.806;2023-04-03T08:53:58;100801.59;;;24.69;34.83
50854;BME280;44154;45.506;-122.806;2023-04-03T08:56:29;100799.03;;;24.63;34.98
50854;BME280;44154;45.506;-122.806;2023-04-03T08:59:00;100797.84;;;24.58;35.07
50854;BME280;44154;45.506;-122.806;2023-04-03T09:01:35;100800.47;;;24.48;36.92
50854;BME280;44154;45.506;-122.806;2023-04-03T09:04:03;100792.09;;;24.55;36.57
50854;BME280;44154;45.506;-122.806;2023-04-03T09:06:36;100800.56;;;24.75;36.17
50854;BME280;44154;45.506;-122.806;2023-04-03T09:09:15;100752.00;;;24.66;35.06
50854;BME280;44154;45.506;-122.806;2023-04-03T09:15:02;100804.81;;;24.88;34.83
50854;BME280;44154;45.506;-122.806;2023-04-03T09:17:40;100796.50;;;24.78;35.28
50854;BME280;44154;45.506;-122.806;2023-04-03T09:20:18;100802.97;;;24.72;35.33
50854;BME280;44154;45.506;-122.806;2023-04-03T09:22:46;100799.59;;;24.65;35.55
50854;BME280;44154;45.506;-122.806;2023-04-03T09:25:26;100802.03;;;24.61;35.86
50854;BME280;44154;45.506;-122.806;2023-04-03T09:27:53;100804.41;;;24.57;35.64
50854;BME280;44154;45.506;-122.806;2023-04-03T09:30:24;100783.50;;;24.46;36.79
50854;BME280;44154;45.506;-122.806;2023-04-03T09:32:54;100798.63;;;24.54;36.38
50854;BME280;44154;45.506;-122.806;2023-04-03T09:35:31;100801.63;;;24.74;35.22
50854;BME280;44154;45.506;-122.806;2023-04-03T09:38:02;100802.19;;;24.99;35.15
50854;BME280;44154;45.506;-122.806;2023-04-03T09:40:46;100801.72;;;25.07;34.51
50854;BME280;44154;45.506;-122.806;2023-04-03T09:43:28;100803.06;;;25.04;34.71
50854;BME280;44154;45.506;-122.806;2023-04-03T09:45:55;100798.00;;;24.91;34.63
50854;BME280;44154;45.506;-122.806;2023-04-03T09:48:25;100812.50;;;24.91;34.69
50854;BME280;44154;45.506;-122.806;2023-04-03T09:50:57;100808.31;;;24.84;34.67
50854;BME280;44154;45.506;-122.806;2023-04-03T09:53:39;100801.13;;;24.77;34.84
50854;BME280;44154;45.506;-122.806;2023-04-03T10:01:35;100805.06;;;24.65;35.79
50854;BME280;44154;45.506;-122.806;2023-04-03T10:04:12;100805.69;;;24.72;35.20
50854;BME280;44154;45.506;-122.806;2023-04-03T10:06:41;100810.38;;;24.99;34.76
50854;BME280;44154;45.506;-122.806;2023-04-03T10:09:24;100808.84;;;25.08;34.64
50854;BME280;44154;45.506;-122.806;2023-04-03T10:14:24;100816.50;;;25.06;34.66
50854;BME280;44154;45.506;-122.806;2023-04-03T10:17:04;100816.13;;;24.97;34.71
50854;BME280;44154;45.506;-122.806;2023-04-03T10:22:00;100811.88;;;24.84;34.86
50854;BME280;44154;45.506;-122.806;2023-04-03T10:24:57;100806.81;;;24.71;35.09
50854;BME280;44154;45.506;-122.806;2023-04-03T10:27:39;100824.38;;;24.75;35.14
50854;BME280;44154;45.506;-122.806;2023-04-03T10:52:46;100824.94;;;24.77;34.63
50854;BME280;44154;45.506;-122.806;2023-04-03T10:57:40;100815.91;;;24.76;34.58
50854;BME280;44154;45.506;-122.806;2023-04-03T11:00:16;100812.66;;;24.80;34.46
50854;BME280;44154;45.506;-122.806;2023-04-03T11:02:52;100806.47;;;24.89;33.83
50854;BME280;44154;45.506;-122.806;2023-04-03T11:05:44;100813.28;;;25.14;34.03
50854;BME280;44154;45.506;-122.806;2023-04-03T11:11:39;100815.72;;;25.10;33.86
50854;BME280;44154;45.506;-122.806;2023-04-03T11:14:24;100821.16;;;25.05;33.81
50854;BME280;44154;45.506;-122.806;2023-04-03T11:17:15;100824.34;;;24.97;34.08
50854;BME280;44154;45.506;-122.806;2023-04-03T11:20:13;100817.41;;;24.89;34.34
50854;BME280;44154;45.506;-122.806;2023-04-03T11:22:42;100815.16;;;24.86;34.23
50854;BME280;44154;45.506;-122.806;2023-04-03T11:27:46;100821.41;;;24.82;34.16
50854;BME280;44154;45.506;-122.806;2023-04-03T11:36:10;100836.91;;;25.20;33.51
50854;BME280;44154;45.506;-122.806;2023-04-03T11:38:42;100839.63;;;25.20;33.28
50854;BME280;44154;45.506;-122.806;2023-04-03T11:41:10;100829.66;;;25.09;33.46
50854;BME280;44154;45.506;-122.806;2023-04-03T11:44:23;100834.59;;;25.07;33.54
50854;BME280;44154;45.506;-122.806;2023-04-03T11:46:59;100822.91;;;24.89;33.48
50854;BME280;44154;45.506;-122.806;2023-04-03T12:26:51;100850.97;;;24.80;33.24
50854;BME280;44154;45.506;-122.806;2023-04-03T12:29:33;100847.03;;;24.92;32.95
50854;BME280;44154;45.506;-122.806;2023-04-03T12:40:01;100860.41;;;25.16;32.33
50854;BME280;44154;45.506;-122.806;2023-04-03T12:45:25;100861.44;;;25.10;32.73
50854;BME280;44154;45.506;-122.806;2023-04-03T12:47:55;100862.06;;;25.17;32.48
50854;BME280;44154;45.506;-122.806;2023-04-03T12:50:29;100870.78;;;25.36;32.02
50854;BME280;44154;45.506;-122.806;2023-04-03T12:53:06;100874.19;;;25.49;31.94
50854;BME280;44154;45.506;-122.806;2023-04-03T12:55:32;100870.25;;;25.39;31.97
50854;BME280;44154;45.506;-122.806;2023-04-03T12:58:20;100870.25;;;25.39;32.01
50854;BME280;44154;45.506;-122.806;2023-04-03T13:01:15;100873.78;;;25.35;32.02
50854;BME280;44154;45.506;-122.806;2023-04-03T13:03:47;100876.22;;;25.31;32.15
50854;BME280;44154;45.506;-122.806;2023-04-03T13:06:23;100872.00;;;25.23;32.21
50854;BME280;44154;45.506;-122.806;2023-04-03T13:08:55;100872.56;;;25.25;32.43
50854;BME280;44154;45.506;-122.806;2023-04-03T13:11:29;100884.09;;;25.27;32.03
50854;BME280;44154;45.506;-122.806;2023-04-03T13:14:19;100884.84;;;25.45;31.81
50854;BME280;44154;45.506;-122.806;2023-04-03T13:17:16;100884.22;;;25.65;31.93
50854;BME280;44154;45.506;-122.806;2023-04-03T13:19:45;100865.50;;;25.57;31.71
50854;BME280;44154;45.506;-122.806;2023-04-03T13:22:35;100888.81;;;25.59;31.55
50854;BME280;44154;45.506;-122.806;2023-04-03T13:25:07;100889.31;;;25.51;31.76
50854;BME280;44154;45.506;-122.806;2023-04-03T13:27:34;100885.94;;;25.44;31.56
50854;BME280;44154;45.506;-122.806;2023-04-03T13:30:03;100882.59;;;25.37;31.82
50854;BME280;44154;45.506;-122.806;2023-04-03T13:32:30;100891.78;;;25.31;31.86
50854;BME280;44154;45.506;-122.806;2023-04-03T13:34:57;100892.03;;;25.29;32.00
50854;BME280;44154;45.506;-122.806;2023-04-03T13:37:32;100900.63;;;25.33;31.93
50854;BME280;44154;45.506;-122.806;2023-04-03T13:42:37;100900.63;;;25.60;31.42
50854;BME280;44154;45.506;-122.806;2023-04-03T13:45:24;100879.72;;;25.54;31.41
50854;BME280;44154;45.506;-122.806;2023-04-03T13:51:00;100912.66;;;25.59;31.40
50854;BME280;44154;45.506;-122.806;2023-04-03T13:53:29;100908.59;;;25.61;31.31
50854;BME280;44154;45.506;-122.806;2023-04-03T13:56:13;100909.56;;;25.77;30.87
50854;BME280;44154;45.506;-122.806;2023-04-03T13:58:57;100911.63;;;25.97;30.80
50854;BME280;44154;45.506;-122.806;2023-04-03T14:01:25;100918.38;;;26.17;30.74
50854;BME280;44154;45.506;-122.806;2023-04-03T14:04:14;100915.72;;;26.27;30.46
50854;BME280;44154;45.506;-122.806;2023-04-03T14:06:41;100917.34;;;26.23;30.27
50854;BME280;44154;45.506;-122.806;2023-04-03T14:09:07;100921.13;;;26.17;30.13
50854;BME280;44154;45.506;-122.806;2023-04-03T14:11:34;100923.25;;;26.10;30.22
50854;BME280;44154;45.506;-122.806;2023-04-03T14:14:06;100917.69;;;26.00;30.55
50854;BME280;44154;45.506;-122.806;2023-04-03T14:16:39;100883.06;;;25.61;30.73
50854;BME280;44154;45.506;-122.806;2023-04-03T14:19:06;100912.84;;;25.79;30.73
50854;BME280;44154;45.506;-122.806;2023-04-03T14:21:33;100925.22;;;25.82;31.12
50854;BME280;44154;45.506;-122.806;2023-04-03T14:23:59;100942.72;;;25.76;31.17
50854;BME280;44154;45.506;-122.806;2023-04-03T14:26:25;100941.84;;;25.70;31.12
50854;BME280;44154;45.506;-122.806;2023-04-03T14:28:54;100940.88;;;25.59;31.26